Time;durP1;ratioP1;P1;durP2;ratioP2;P2;SDS_P1;SDS_P2;PMS_P1;PMS_P2;Temp;Humidity;BMP_temperature;BMP_pressure;BME280_temperature;BME280_humidity;BME280_pressure;Samples;Min_cycle;Max_cycle;Signal;HPM_P1;HPM_P2
2022/03/24 00:00:30;;;;;;;57.47;28.70;;;5.90;99.90;;;;;;5055400;28;20021;-61
2022/03/24 00:02:55;;;;;;;54.83;28.10;;;5.80;99.90;;;;;;5053444;28;20021;-60
2022/03/24 00:05:21;;;;;;;61.00;26.85;;;5.80;99.90;;;;;;5055730;28;20050;-62
2022/03/24 00:07:47;;;;;;;69.45;27.95;;;5.70;99.90;;;;;;5054808;28;20025;-63
2022/03/24 00:10:13;;;;;;;65.32;27.98;;;5.80;99.90;;;;;;5053038;28;20017;-64
2022/03/24 00:12:39;;;;;;;66.65;29.90;;;5.90;99.90;;;;;;5052078;28;20079;-62
2022/03/24 00:15:06;;;;;;;61.10;29.58;;;5.90;99.90;;;;;;5049446;28;20436;-62
2022/03/24 00:17:33;;;;;;;70.50;29.08;;;5.90;99.90;;;;;;5035353;28;20383;-62
2022/03/24 00:19:59;;;;;;;66.47;28.02;;;5.80;99.90;;;;;;5054214;28;20532;-62
2022/03/24 00:22:25;;;;;;;57.38;27.77;;;5.70;99.90;;;;;;5055397;28;20044;-62
2022/03/24 00:24:50;;;;;;;69.85;30.80;;;5.50;99.90;;;;;;5052704;28;20039;-62
2022/03/24 00:27:16;;;;;;;63.38;28.70;;;5.50;99.90;;;;;;5054481;28;20048;-62
2022/03/24 00:29:42;;;;;;;66.03;30.60;;;5.40;99.90;;;;;;5052799;28;20051;-62
2022/03/24 00:32:08;;;;;;;68.05;28.15;;;5.50;99.90;;;;;;5052745;28;20028;-62
2022/03/24 00:34:34;;;;;;;63.85;29.00;;;5.60;99.90;;;;;;5057863;28;20021;-62
2022/03/24 00:37:00;;;;;;;56.92;27.65;;;5.60;99.90;;;;;;5059686;28;20029;-61
2022/03/24 00:39:26;;;;;;;59.30;28.40;;;5.60;99.90;;;;;;5052295;28;20549;-60
2022/03/24 00:41:52;;;;;;;68.65;30.00;;;5.60;99.90;;;;;;5053097;28;20070;-63
2022/03/24 00:44:19;;;;;;;63.92;29.88;;;5.50;99.90;;;;;;5051847;28;20025;-62
2022/03/24 00:46:45;;;;;;;73.70;31.00;;;5.30;99.90;;;;;;5052772;28;20035;-62
2022/03/24 00:49:10;;;;;;;67.10;28.98;;;5.10;99.90;;;;;;5052546;28;20025;-59
2022/03/24 00:51:36;;;;;;;73.85;32.42;;;5.10;99.90;;;;;;5052029;28;20060;-63
2022/03/24 00:54:01;;;;;;;68.93;31.50;;;5.10;99.90;;;;;;5051807;28;20032;-59
2022/03/24 00:56:27;;;;;;;63.65;30.02;;;5.10;99.90;;;;;;5052016;28;20029;-61
2022/03/24 00:58:53;;;;;;;64.15;30.33;;;5.20;99.90;;;;;;5051409;28;20095;-60
2022/03/24 01:01:19;;;;;;;69.68;32.35;;;5.20;99.90;;;;;;5051447;28;20033;-64
2022/03/24 01:03:44;;;;;;;76.88;34.03;;;5.20;99.90;;;;;;5051625;28;20021;-60
2022/03/24 01:06:16;;;;;;;74.90;31.35;;;5.20;99.90;;;;;;5052793;28;20067;-56
2022/03/24 01:08:42;;;;;;;74.85;32.08;;;5.10;99.90;;;;;;5046858;28;20103;-62
2022/03/24 01:11:08;;;;;;;74.22;34.03;;;5.00;99.90;;;;;;5049554;28;21916;-60
2022/03/24 01:13:34;;;;;;;74.57;34.92;;;4.90;99.90;;;;;;5052761;28;20029;-60
2022/03/24 01:16:01;;;;;;;79.22;34.13;;;4.80;99.90;;;;;;5055464;28;20032;-59
2022/03/24 01:18:29;;;;;;;83.25;37.45;;;4.90;99.90;;;;;;5051068;28;20025;-59
2022/03/24 01:20:54;;;;;;;67.63;31.63;;;4.90;99.90;;;;;;5059619;28;20107;-60
2022/03/24 01:23:23;;;;;;;79.70;33.42;;;4.90;99.90;;;;;;5051528;28;20100;-61
2022/03/24 01:25:49;;;;;;;86.78;34.83;;;4.90;99.90;;;;;;5051817;28;20017;-60
2022/03/24 01:28:15;;;;;;;86.72;35.63;;;5.00;99.90;;;;;;5051538;28;20517;-61
2022/03/24 01:30:40;;;;;;;79.75;36.22;;;5.00;99.90;;;;;;5051470;28;20070;-60
2022/03/24 01:33:06;;;;;;;76.78;33.97;;;5.00;99.90;;;;;;5053714;28;20513;-59
2022/03/24 01:35:32;;;;;;;78.00;34.03;;;4.90;99.90;;;;;;5056763;28;20032;-58
2022/03/24 01:37:58;;;;;;;80.28;34.50;;;4.90;99.90;;;;;;5056640;28;20028;-57
2022/03/24 01:40:24;;;;;;;91.28;36.30;;;4.80;99.90;;;;;;5051074;28;20518;-61
2022/03/24 01:42:50;;;;;;;93.10;35.60;;;4.70;99.90;;;;;;5051203;28;20025;-61
2022/03/24 01:45:16;;;;;;;85.53;35.33;;;4.80;99.90;;;;;;5050674;28;20029;-62
2022/03/24 01:47:42;;;;;;;77.13;33.90;;;4.70;99.90;;;;;;5050966;28;20025;-60
2022/03/24 01:50:09;;;;;;;81.07;34.83;;;4.70;99.90;;;;;;5050701;28;20033;-63
2022/03/24 01:52:35;;;;;;;81.38;35.78;;;4.80;99.90;;;;;;5051065;28;20078;-60
2022/03/24 01:55:01;;;;;;;83.35;34.47;;;4.80;99.90;;;;;;5050598;28;20037;-62
2022/03/24 01:57:28;;;;;;;78.35;34.70;;;4.80;99.90;;;;;;5051425;28;20032;-63
2022/03/24 01:59:54;;;;;;;74.63;32.95;;;4.80;99.90;;;;;;5050517;28;20449;-63
2022/03/24 02:02:21;;;;;;;74.75;34.28;;;4.60;99.90;;;;;;5050689;28;20017;-60
2022/03/24 02:04:46;;;;;;;75.10;32.90;;;4.50;99.90;;;;;;5056893;28;20084;-60
2022/03/24 02:07:13;;;;;;;81.03;35.00;;;4.40;99.90;;;;;;5051023;28;20025;-62
2022/03/24 02:09:39;;;;;;;80.45;35.97;;;4.30;99.90;;;;;;5051020;28;20021;-60
2022/03/24 02:12:10;;;;;;;85.80;37.22;;;4.40;99.90;;;;;;5050341;28;20033;-61
2022/03/24 02:14:36;;;;;;;79.00;34.92;;;4.30;99.90;;;;;;5049790;28;20033;-62
2022/03/24 02:17:02;;;;;;;84.88;36.28;;;4.30;99.90;;;;;;5052556;28;20483;-63
2022/03/24 02:19:28;;;;;;;86.57;34.90;;;4.30;99.90;;;;;;5051576;28;20044;-61
2022/03/24 02:21:56;;;;;;;75.38;33.72;;;4.30;99.90;;;;;;5050466;28;20610;-63
2022/03/24 02:24:23;;;;;;;85.68;35.40;;;4.20;99.90;;;;;;5050073;28;20025;-62
2022/03/24 02:26:50;;;;;;;86.55;36.03;;;4.10;99.90;;;;;;5049857;28;20391;-61
2022/03/24 02:29:17;;;;;;;77.63;34.08;;;4.10;99.90;;;;;;5059047;28;20037;-60
2022/03/24 02:31:45;;;;;;;77.85;34.97;;;4.00;99.90;;;;;;5053334;28;20025;-61
2022/03/24 02:37:00;;;;;;;84.03;37.63;;;3.90;99.90;;;;;;5056012;28;20040;-63
2022/03/24 02:39:25;;;;;;;101.05;39.55;;;3.90;99.90;;;;;;5049966;28;20037;-60
2022/03/24 02:41:56;;;;;;;97.55;40.45;;;3.90;99.90;;;;;;5050564;28;20391;-61
2022/03/24 02:44:25;;;;;;;98.10;40.72;;;3.90;99.90;;;;;;5051375;28;20038;-62
2022/03/24 02:46:53;;;;;;;87.47;37.25;;;3.90;99.90;;;;;;5051252;28;20018;-61
2022/03/24 02:49:20;;;;;;;88.53;38.30;;;4.00;99.90;;;;;;5056942;28;20029;-61
2022/03/24 02:51:46;;;;;;;98.05;39.72;;;4.00;99.90;;;;;;5050489;28;20033;-63
2022/03/24 02:54:13;;;;;;;95.35;37.35;;;3.90;99.90;;;;;;5050325;28;20576;-61
2022/03/24 02:56:42;;;;;;;88.53;37.67;;;3.90;99.90;;;;;;5047567;28;20031;-62
2022/03/24 02:59:08;;;;;;;92.45;37.03;;;4.00;99.90;;;;;;5048988;28;20025;-63
2022/03/24 03:01:33;;;;;;;98.70;40.20;;;4.00;99.90;;;;;;5050176;28;20485;-62
2022/03/24 03:04:00;;;;;;;93.85;38.50;;;4.00;99.90;;;;;;5054128;28;20108;-65
2022/03/24 03:06:26;;;;;;;90.72;36.25;;;4.10;99.90;;;;;;5055664;28;20045;-60
2022/03/24 03:08:52;;;;;;;84.50;36.45;;;4.00;99.90;;;;;;5049972;28;20063;-60
2022/03/24 03:11:20;;;;;;;83.35;35.88;;;3.90;99.90;;;;;;5055441;28;20025;-61
2022/03/24 03:13:46;;;;;;;90.65;36.08;;;3.90;99.90;;;;;;5049315;28;20056;-62
2022/03/24 03:16:12;;;;;;;86.32;34.58;;;3.80;99.90;;;;;;5050477;28;20029;-61
2022/03/24 03:18:41;;;;;;;86.63;37.40;;;3.80;99.90;;;;;;5049255;28;20078;-62
2022/03/24 03:21:06;;;;;;;85.38;34.05;;;3.80;99.90;;;;;;5070970;22;20068;-61
2022/03/24 03:23:32;;;;;;;85.60;32.33;;;3.90;99.90;;;;;;5047029;28;20387;-63
2022/03/24 03:25:57;;;;;;;76.60;35.40;;;3.90;99.90;;;;;;5048631;28;20502;-61
2022/03/24 03:28:23;;;;;;;80.00;36.58;;;3.90;99.90;;;;;;5047614;28;20427;-61
2022/03/24 03:30:49;;;;;;;78.88;33.53;;;3.70;99.90;;;;;;5049151;28;20033;-62
2022/03/24 03:33:15;;;;;;;80.38;35.22;;;3.70;99.90;;;;;;5047886;28;20033;-62
2022/03/24 03:35:40;;;;;;;77.13;35.28;;;3.50;99.90;;;;;;5048551;28;20040;-58
2022/03/24 03:38:10;;;;;;;81.35;34.60;;;3.40;99.90;;;;;;5048097;28;20379;-58
2022/03/24 03:40:35;;;;;;;87.07;33.72;;;3.30;99.90;;;;;;5048429;28;20017;-59
2022/03/24 03:43:01;;;;;;;78.40;34.25;;;3.30;99.90;;;;;;5048496;28;20399;-59
2022/03/24 03:45:26;;;;;;;80.68;36.42;;;3.30;99.90;;;;;;5045578;28;20443;-63
2022/03/24 03:47:52;;;;;;;84.10;35.30;;;3.30;99.90;;;;;;5050960;28;20609;-61
2022/03/24 03:50:18;;;;;;;80.07;32.40;;;3.30;99.90;;;;;;5053599;28;20540;-63
2022/03/24 03:52:43;;;;;;;86.30;34.92;;;3.30;99.90;;;;;;5052845;28;20048;-60
2022/03/24 03:55:10;;;;;;;80.80;34.08;;;3.30;99.90;;;;;;5052919;28;20083;-60
2022/03/24 03:57:35;;;;;;;86.95;34.30;;;3.20;99.90;;;;;;5053202;28;20053;-61
2022/03/24 04:00:52;;;;;;;79.65;35.22;;;3.30;99.90;;;;;;5053138;28;20469;-61
2022/03/24 04:02:48;;;;;;;79.95;34.50;;;3.20;99.90;;;;;;5051592;28;20430;-61
2022/03/24 04:05:14;;;;;;;81.72;34.83;;;3.20;99.90;;;;;;5052951;28;20032;-60
2022/03/24 04:07:40;;;;;;;77.32;35.53;;;3.10;99.90;;;;;;5053130;28;20021;-61
2022/03/24 04:10:05;;;;;;;78.18;34.85;;;3.20;99.90;;;;;;5051761;28;20394;-62
2022/03/24 04:12:31;;;;;;;81.13;34.08;;;3.30;99.90;;;;;;5050674;28;20586;-60
2022/03/24 04:14:57;;;;;;;80.78;32.90;;;3.40;99.90;;;;;;5051978;28;20099;-59
2022/03/24 04:17:22;;;;;;;76.53;32.53;;;3.40;99.90;;;;;;5051147;28;20043;-59
2022/03/24 04:19:48;;;;;;;75.05;33.85;;;3.40;99.90;;;;;;5051407;28;20056;-62
2022/03/24 04:22:13;;;;;;;73.82;31.95;;;3.30;99.90;;;;;;5051183;28;20403;-58
2022/03/24 04:24:39;;;;;;;65.47;30.50;;;3.20;99.90;;;;;;5050988;28;20021;-62
2022/03/24 04:27:06;;;;;;;75.43;31.38;;;3.10;99.90;;;;;;5052358;28;20029;-62
2022/03/24 04:29:31;;;;;;;83.60;34.10;;;3.00;99.90;;;;;;5052102;28;20031;-61
2022/03/24 04:31:57;;;;;;;80.65;35.53;;;2.90;99.90;;;;;;5052044;28;20103;-60
2022/03/24 04:34:22;;;;;;;81.65;35.90;;;2.90;99.90;;;;;;5050641;28;20033;-61
2022/03/24 04:36:48;;;;;;;74.80;33.78;;;2.90;99.90;;;;;;5044647;28;20060;-61
2022/03/24 04:39:14;;;;;;;81.85;34.35;;;3.00;99.90;;;;;;5051903;28;20399;-61
2022/03/24 04:41:41;;;;;;;80.35;31.85;;;3.10;99.90;;;;;;5049579;28;20028;-63
2022/03/24 04:44:07;;;;;;;72.13;32.03;;;3.20;99.90;;;;;;5051324;28;20502;-61
2022/03/24 04:46:32;;;;;;;71.78;32.70;;;3.30;99.90;;;;;;5051080;28;20102;-62
2022/03/24 04:48:58;;;;;;;69.55;31.17;;;3.30;99.90;;;;;;5054180;28;20033;-60
2022/03/24 04:51:23;;;;;;;80.57;33.13;;;3.20;99.90;;;;;;5046998;28;20051;-59
2022/03/24 04:53:49;;;;;;;72.93;33.03;;;3.20;99.90;;;;;;5051748;28;20056;-61
2022/03/24 04:56:15;;;;;;;69.35;31.92;;;3.10;99.90;;;;;;5050995;28;20044;-63
2022/03/24 04:58:42;;;;;;;73.10;31.42;;;3.00;99.90;;;;;;5050621;28;20498;-62
2022/03/24 05:01:07;;;;;;;75.88;30.85;;;2.90;99.90;;;;;;5052194;28;20033;-63
2022/03/24 05:03:33;;;;;;;76.45;32.45;;;2.80;99.90;;;;;;5053098;28;20037;-61
2022/03/24 05:05:59;;;;;;;68.05;31.27;;;2.80;99.90;;;;;;5050143;28;20028;-58
2022/03/24 05:08:24;;;;;;;65.60;30.20;;;2.80;99.90;;;;;;5051801;28;20033;-60
2022/03/24 05:10:50;;;;;;;68.38;32.17;;;2.80;99.90;;;;;;5050362;28;20160;-60
2022/03/24 05:13:15;;;;;;;78.03;32.22;;;2.70;99.90;;;;;;5051596;28;20056;-62
2022/03/24 05:15:41;;;;;;;74.53;30.45;;;2.80;99.90;;;;;;5051406;28;20032;-61
2022/03/24 05:18:06;;;;;;;65.65;29.45;;;2.70;99.90;;;;;;5050209;28;20446;-61
2022/03/24 05:20:33;;;;;;;72.05;31.92;;;2.80;99.90;;;;;;5051337;28;20080;-62
2022/03/24 05:22:59;;;;;;;79.80;31.25;;;2.80;99.90;;;;;;5051525;28;20074;-62
2022/03/24 05:25:26;;;;;;;72.85;30.90;;;2.80;99.90;;;;;;5051028;28;20494;-61
2022/03/24 05:27:51;;;;;;;68.68;31.35;;;2.80;99.90;;;;;;5051093;28;20059;-60
2022/03/24 05:30:17;;;;;;;68.63;29.67;;;2.80;99.90;;;;;;5050177;28;20402;-62
2022/03/24 05:32:42;;;;;;;75.30;30.38;;;2.60;99.90;;;;;;5050047;28;20482;-59
2022/03/24 05:35:09;;;;;;;80.68;32.30;;;2.60;99.90;;;;;;5051346;28;20454;-59
2022/03/24 05:37:34;;;;;;;86.95;32.63;;;2.60;99.90;;;;;;5048926;28;20025;-57
2022/03/24 05:40:00;;;;;;;78.68;32.72;;;2.50;99.90;;;;;;5049759;28;20385;-59
2022/03/24 05:42:27;;;;;;;69.38;30.75;;;2.60;99.90;;;;;;5050527;28;20381;-58
2022/03/24 05:44:52;;;;;;;80.03;32.63;;;2.60;99.90;;;;;;5050835;28;20071;-60
2022/03/24 05:47:18;;;;;;;77.50;31.65;;;2.60;99.90;;;;;;5049959;28;20025;-60
2022/03/24 05:49:44;;;;;;;71.18;31.25;;;2.60;99.90;;;;;;5051993;28;20033;-60
2022/03/24 05:52:11;;;;;;;80.88;33.05;;;2.60;99.90;;;;;;5050733;28;20025;-61
2022/03/24 05:54:37;;;;;;;70.65;32.60;;;2.70;99.90;;;;;;5051220;28;20017;-58
2022/03/24 05:57:03;;;;;;;68.05;30.13;;;2.70;99.90;;;;;;5050778;28;20469;-61
2022/03/24 05:59:29;;;;;;;69.05;31.23;;;2.70;99.90;;;;;;5049826;28;20025;-61
2022/03/24 06:01:55;;;;;;;67.45;29.58;;;2.70;99.90;;;;;;5045884;28;20025;-62
2022/03/24 06:04:22;;;;;;;77.00;31.10;;;2.70;99.90;;;;;;5049778;28;20071;-63
2022/03/24 06:06:53;;;;;;;71.55;30.95;;;2.80;99.90;;;;;;5050162;28;20136;-62
2022/03/24 06:09:20;;;;;;;71.55;30.92;;;2.90;99.90;;;;;;5045153;28;20024;-58
2022/03/24 06:11:47;;;;;;;72.25;29.90;;;2.90;99.90;;;;;;5049006;28;20017;-61
2022/03/24 06:14:14;;;;;;;73.63;30.58;;;2.80;99.90;;;;;;5049265;28;20036;-61
2022/03/24 06:16:43;;;;;;;63.47;30.13;;;2.90;99.90;;;;;;5049537;28;20033;-62
2022/03/24 06:19:09;;;;;;;68.65;32.25;;;2.90;99.90;;;;;;5049685;28;20069;-61
2022/03/24 06:21:36;;;;;;;70.78;31.23;;;2.90;99.90;;;;;;5047955;28;20086;-62
2022/03/24 06:24:02;;;;;;;73.30;30.40;;;2.90;99.90;;;;;;5045376;28;20463;-62
2022/03/24 06:26:29;;;;;;;68.93;29.77;;;2.90;99.90;;;;;;5055869;28;20025;-62
2022/03/24 06:28:55;;;;;;;66.20;30.40;;;3.00;99.90;;;;;;5051142;28;20049;-61
2022/03/24 06:31:21;;;;;;;71.20;31.05;;;3.00;99.90;;;;;;5048648;28;20120;-62
2022/03/24 06:33:48;;;;;;;64.82;29.65;;;3.10;99.90;;;;;;5054971;28;20033;-62
2022/03/24 06:36:14;;;;;;;75.30;29.75;;;3.20;99.90;;;;;;5048249;28;20440;-62
2022/03/24 06:38:39;;;;;;;67.18;30.02;;;3.40;99.90;;;;;;5043420;28;20115;-62
2022/03/24 06:41:05;;;;;;;62.47;29.38;;;3.50;99.90;;;;;;5048006;28;20104;-61
2022/03/24 06:43:32;;;;;;;60.45;29.52;;;3.60;99.90;;;;;;5046625;28;20044;-60
2022/03/24 06:45:57;;;;;;;73.63;32.42;;;3.70;99.90;;;;;;5045347;28;20040;-62
2022/03/24 06:48:23;;;;;;;68.18;29.98;;;3.80;99.90;;;;;;5038412;28;20464;-60
2022/03/24 06:50:49;;;;;;;70.30;29.90;;;3.90;99.90;;;;;;5049492;28;20049;-64
2022/03/24 06:53:15;;;;;;;66.57;30.80;;;4.10;99.90;;;;;;5047028;28;20017;-60
2022/03/24 06:55:41;;;;;;;68.68;31.13;;;4.20;99.90;;;;;;5049982;28;20109;-63
2022/03/24 06:58:06;;;;;;;57.25;28.38;;;4.30;99.90;;;;;;5045238;28;20434;-62
2022/03/24 07:00:32;;;;;;;70.82;31.77;;;4.40;99.90;;;;;;5046414;28;20043;-62
2022/03/24 07:02:58;;;;;;;63.00;29.88;;;4.50;99.90;;;;;;5051116;28;20123;-64
2022/03/24 07:05:24;;;;;;;63.40;29.33;;;4.60;99.90;;;;;;5050736;28;20021;-63
2022/03/24 07:07:54;;;;;;;70.30;30.77;;;4.70;99.90;;;;;;5046996;28;20414;-64
2022/03/24 07:10:20;;;;;;;65.88;30.20;;;4.80;99.90;;;;;;5047039;28;20497;-65
2022/03/24 07:12:48;;;;;;;69.65;29.92;;;4.90;99.90;;;;;;5048864;28;20013;-64
2022/03/24 07:15:14;;;;;;;70.65;32.22;;;5.00;99.90;;;;;;5047984;28;20088;-62
2022/03/24 07:17:40;;;;;;;68.55;32.10;;;5.10;99.90;;;;;;5049767;28;20021;-64
2022/03/24 07:20:07;;;;;;;66.43;30.92;;;5.20;99.90;;;;;;5050496;28;20032;-64
2022/03/24 07:22:37;;;;;;;76.75;32.17;;;5.30;99.90;;;;;;5051828;28;20025;-63
2022/03/24 07:25:05;;;;;;;64.80;30.90;;;5.40;99.90;;;;;;5054521;28;20029;-63
2022/03/24 07:27:30;;;;;;;69.28;32.30;;;5.50;99.90;;;;;;5053978;28;20478;-64
2022/03/24 07:29:56;;;;;;;74.70;33.35;;;5.60;99.90;;;;;;5054655;28;20074;-62
2022/03/24 07:32:22;;;;;;;63.67;30.83;;;5.70;99.90;;;;;;5054164;28;20035;-63
2022/03/24 07:34:47;;;;;;;70.82;32.70;;;5.80;99.90;;;;;;5053396;28;20032;-63
2022/03/24 07:37:13;;;;;;;76.40;36.33;;;5.90;99.90;;;;;;5049158;28;20182;-64
2022/03/24 07:39:39;;;;;;;82.88;36.53;;;6.00;99.90;;;;;;5054493;28;20041;-63
2022/03/24 07:42:05;;;;;;;72.68;33.15;;;6.10;99.90;;;;;;5054233;28;20021;-62
2022/03/24 07:44:31;;;;;;;73.32;33.47;;;6.20;99.90;;;;;;5054077;28;20029;-62
2022/03/24 07:46:56;;;;;;;81.55;35.53;;;6.30;99.90;;;;;;5053241;28;20383;-65
2022/03/24 07:49:22;;;;;;;79.53;33.70;;;6.40;99.90;;;;;;5053757;28;20483;-64
2022/03/24 07:51:49;;;;;;;75.88;36.28;;;6.60;99.90;;;;;;5053443;28;20028;-65
2022/03/24 07:54:14;;;;;;;75.93;35.03;;;6.70;99.90;;;;;;5053471;28;20033;-64
2022/03/24 07:56:40;;;;;;;66.07;30.88;;;6.80;99.90;;;;;;5053350;28;20061;-63
2022/03/24 07:59:06;;;;;;;70.28;31.75;;;6.90;99.90;;;;;;5053119;28;20033;-63
2022/03/24 08:01:33;;;;;;;78.78;36.47;;;7.00;99.90;;;;;;5052635;28;20499;-64
2022/03/24 08:04:01;;;;;;;69.70;35.33;;;7.10;99.90;;;;;;5052029;28;20029;-64
2022/03/24 08:06:28;;;;;;;78.50;35.60;;;7.20;99.90;;;;;;5053661;28;20057;-64
2022/03/24 08:08:54;;;;;;;76.72;34.60;;;7.30;99.90;;;;;;5050836;28;20029;-62
2022/03/24 08:11:22;;;;;;;70.78;33.65;;;7.40;99.90;;;;;;5051758;28;20033;-63
2022/03/24 08:13:50;;;;;;;81.97;36.03;;;7.50;99.90;;;;;;5052068;28;20100;-66
2022/03/24 08:16:16;;;;;;;77.88;36.42;;;7.60;99.90;;;;;;5047987;28;20029;-64
2022/03/24 08:18:41;;;;;;;79.75;36.80;;;7.70;99.90;;;;;;5050583;28;20025;-62
2022/03/24 08:21:08;;;;;;;79.25;37.42;;;7.90;99.90;;;;;;5052934;28;20383;-63
2022/03/24 08:23:33;;;;;;;72.88;34.45;;;8.00;99.90;;;;;;5052533;28;20025;-61
2022/03/24 08:25:59;;;;;;;74.70;36.03;;;8.10;99.90;;;;;;5053114;28;20036;-64
2022/03/24 08:28:24;;;;;;;75.60;36.38;;;8.20;99.90;;;;;;5053828;28;20391;-63
2022/03/24 08:30:50;;;;;;;80.38;38.67;;;8.30;99.90;;;;;;5052870;28;20025;-63
2022/03/24 08:33:16;;;;;;;83.72;36.22;;;8.50;99.90;;;;;;5052308;28;20040;-63
2022/03/24 08:35:42;;;;;;;74.55;37.00;;;8.60;99.90;;;;;;5053093;28;20025;-64
2022/03/24 08:38:10;;;;;;;75.10;35.75;;;8.70;99.90;;;;;;5053092;28;20025;-63
2022/03/24 08:40:36;;;;;;;79.60;38.10;;;8.90;99.90;;;;;;5053193;28;20017;-65
2022/03/24 08:43:03;;;;;;;80.95;36.95;;;9.00;99.90;;;;;;5053278;28;20021;-64
2022/03/24 08:45:29;;;;;;;79.28;37.95;;;9.10;99.90;;;;;;5046101;28;20122;-63
2022/03/24 08:47:55;;;;;;;73.88;36.80;;;9.20;99.90;;;;;;5053042;28;20483;-63
2022/03/24 08:50:23;;;;;;;79.22;37.35;;;9.30;99.90;;;;;;5053131;28;20403;-64
2022/03/24 08:52:49;;;;;;;82.15;37.40;;;9.40;99.90;;;;;;5053030;28;20021;-64
2022/03/24 08:55:14;;;;;;;79.38;37.40;;;9.50;99.90;;;;;;5052792;28;20023;-64
2022/03/24 08:57:42;;;;;;;83.57;39.42;;;9.60;99.90;;;;;;5053017;28;20025;-64
2022/03/24 09:00:13;;;;;;;84.20;40.53;;;9.80;99.90;;;;;;5052923;28;20028;-62
2022/03/24 09:02:44;;;;;;;90.63;38.40;;;9.90;99.90;;;;;;5052443;28;20104;-64
2022/03/24 09:05:09;;;;;;;90.18;40.92;;;10.10;99.90;;;;;;5058032;28;20135;-61
2022/03/24 09:07:36;;;;;;;82.70;39.65;;;10.20;99.90;;;;;;5052720;28;20021;-64
2022/03/24 09:10:06;;;;;;;85.38;39.22;;;10.30;99.90;;;;;;5055095;28;20028;-64
2022/03/24 09:12:34;;;;;;;92.45;41.33;;;10.50;99.90;;;;;;5052750;28;20056;-62
2022/03/24 09:15:01;;;;;;;92.72;41.83;;;10.60;99.90;;;;;;5052425;28;20165;-63
2022/03/24 09:17:26;;;;;;;82.28;39.50;;;10.80;99.90;;;;;;5051903;28;20482;-62
2022/03/24 09:22:25;;;;;;;81.72;38.55;;;11.20;99.90;;;;;;5109474;22;20417;-55
2022/03/24 09:24:51;;;;;;;93.32;42.55;;;11.40;99.90;;;;;;5091422;28;20099;-54
2022/03/24 09:27:16;;;;;;;89.32;41.72;;;11.60;99.90;;;;;;5092199;28;20028;-55
2022/03/24 09:29:42;;;;;;;98.40;44.20;;;11.80;99.90;;;;;;5090460;28;20458;-55
2022/03/24 09:32:12;;;;;;;79.07;40.45;;;11.90;99.90;;;;;;5092167;28;20558;-53
2022/03/24 09:34:41;;;;;;;88.60;42.72;;;12.00;99.90;;;;;;5091707;28;20028;-55
2022/03/24 09:37:08;;;;;;;85.32;42.95;;;12.20;99.90;;;;;;5092234;28;20439;-52
2022/03/24 09:39:34;;;;;;;89.47;41.72;;;12.30;99.90;;;;;;5092006;28;20119;-50
2022/03/24 09:42:00;;;;;;;84.13;41.42;;;12.50;99.90;;;;;;5091864;28;20046;-55
2022/03/24 09:44:26;;;;;;;88.50;43.38;;;12.60;99.90;;;;;;5093493;28;20481;-56
2022/03/24 09:46:52;;;;;;;94.97;43.28;;;12.80;99.90;;;;;;5084441;28;20032;-55
2022/03/24 09:49:18;;;;;;;78.47;40.20;;;12.90;99.90;;;;;;5098277;28;20030;-56
2022/03/24 09:51:44;;;;;;;95.63;42.55;;;12.90;99.90;;;;;;5096119;28;20017;-56
2022/03/24 09:54:11;;;;;;;82.53;42.80;;;13.10;99.90;;;;;;5093112;28;20065;-55
2022/03/24 09:56:40;;;;;;;86.10;43.45;;;13.20;99.90;;;;;;5091714;28;20013;-52
2022/03/24 09:59:09;;;;;;;88.35;44.42;;;13.40;99.90;;;;;;5091840;28;20067;-56
2022/03/24 10:01:39;;;;;;;92.72;44.08;;;13.60;99.90;;;;;;5095100;28;20057;-57
2022/03/24 10:04:13;;;;;;;89.00;43.03;;;13.70;99.90;;;;;;5091036;28;20047;-54
2022/03/24 10:06:45;;;;;;;92.85;42.35;;;13.90;99.90;;;;;;5091622;28;20027;-55
2022/03/24 10:09:10;;;;;;;96.97;45.40;;;14.00;99.90;;;;;;5091626;28;20486;-52
2022/03/24 10:11:36;;;;;;;88.70;43.50;;;14.10;99.90;;;;;;5091644;28;20050;-51
2022/03/24 10:14:05;;;;;;;95.45;45.08;;;14.20;99.90;;;;;;5092370;28;20121;-55
2022/03/24 10:16:33;;;;;;;94.90;47.97;;;14.30;99.90;;;;;;5091491;28;20035;-56
2022/03/24 10:19:01;;;;;;;87.53;44.78;;;14.50;99.90;;;;;;5091066;28;20032;-59
2022/03/24 10:21:34;;;;;;;89.85;45.30;;;14.70;99.90;;;;;;5090392;28;20024;-58
2022/03/24 10:24:11;;;;;;;86.40;43.13;;;14.90;99.90;;;;;;5090128;28;20027;-57
2022/03/24 10:27:00;;;;;;;95.32;45.65;;;15.00;99.90;;;;;;5091114;28;20027;-53
2022/03/24 10:29:27;;;;;;;81.53;42.33;;;15.20;99.90;;;;;;5091149;28;20080;-59
2022/03/24 10:32:02;;;;;;;81.78;43.65;;;15.20;99.90;;;;;;5092285;28;20565;-57
2022/03/24 10:34:39;;;;;;;73.15;42.00;;;15.50;99.90;;;;;;5090779;28;20077;-57
2022/03/24 10:37:06;;;;;;;89.93;42.83;;;15.80;99.90;;;;;;5084876;28;20024;-59
2022/03/24 10:39:32;;;;;;;87.85;43.25;;;16.00;99.90;;;;;;5090826;28;20032;-56
2022/03/24 10:42:18;;;;;;;93.00;45.22;;;16.20;99.90;;;;;;5072679;28;20028;-59
2022/03/24 10:45:07;;;;;;;89.32;46.08;;;16.40;99.90;;;;;;5097168;28;20110;-57
2022/03/24 10:47:56;;;;;;;92.80;46.25;;;16.50;99.80;;;;;;5090599;28;20020;-57
2022/03/24 10:50:40;;;;;;;88.90;43.95;;;16.50;99.00;;;;;;5091166;28;20031;-59
2022/03/24 10:53:11;;;;;;;81.68;43.35;;;16.60;98.30;;;;;;5090867;28;20437;-56
2022/03/24 10:56:16;;;;;;;88.53;46.35;;;16.60;96.50;;;;;;5093263;28;20024;-59
2022/03/24 10:58:54;;;;;;;66.25;36.47;;;16.70;96.60;;;;;;5090085;28;20170;-59
2022/03/24 11:01:21;;;;;;;69.88;38.00;;;16.90;94.50;;;;;;5095156;28;20517;-58
2022/03/24 11:03:47;;;;;;;68.18;37.78;;;17.20;94.10;;;;;;5094618;28;20107;-59
2022/03/24 11:06:17;;;;;;;61.50;33.47;;;17.30;92.40;;;;;;5094908;28;20046;-57
2022/03/24 11:08:50;;;;;;;61.85;34.17;;;17.20;91.60;;;;;;5094863;28;20035;-57
2022/03/24 11:11:16;;;;;;;57.22;31.08;;;17.40;92.10;;;;;;5098096;28;20062;-59
2022/03/24 11:13:58;;;;;;;66.13;36.05;;;17.60;85.90;;;;;;5098846;28;20452;-59
2022/03/24 11:16:29;;;;;;;63.10;34.13;;;17.90;90.40;;;;;;5102416;28;20114;-58
2022/03/24 11:18:58;;;;;;;56.60;31.77;;;18.00;89.50;;;;;;5094367;28;20024;-57
2022/03/24 11:21:40;;;;;;;66.05;34.50;;;18.10;89.70;;;;;;5094597;28;20055;-59
2022/03/24 11:24:06;;;;;;;59.13;33.75;;;18.20;89.00;;;;;;5086842;28;20104;-58
2022/03/24 11:26:34;;;;;;;60.20;32.60;;;18.20;87.70;;;;;;5094447;28;20024;-57
2022/03/24 11:29:00;;;;;;;58.55;30.90;;;18.20;86.20;;;;;;5094592;28;20107;-56
2022/03/24 11:31:28;;;;;;;56.47;30.50;;;18.10;86.60;;;;;;5097831;28;20055;-58
2022/03/24 11:33:56;;;;;;;57.22;29.45;;;18.10;88.70;;;;;;5093954;28;20024;-57
2022/03/24 11:36:23;;;;;;;59.97;31.45;;;18.40;86.20;;;;;;5094239;28;20506;-59
2022/03/24 11:38:53;;;;;;;52.78;23.35;;;18.60;89.00;;;;;;5096208;28;20120;-55
2022/03/24 11:41:25;;;;;;;44.08;19.33;;;18.90;82.00;;;;;;5094835;28;20028;-59
2022/03/24 11:43:56;;;;;;;43.95;18.55;;;18.70;80.70;;;;;;5093460;28;20137;-59
2022/03/24 11:46:33;;;;;;;41.65;18.38;;;18.60;81.50;;;;;;5094215;28;20032;-58
2022/03/24 11:49:22;;;;;;;45.63;20.50;;;18.50;80.30;;;;;;5094175;28;20032;-59
2022/03/24 11:52:10;;;;;;;55.33;21.02;;;18.70;80.30;;;;;;5071916;28;20190;-59
2022/03/24 11:54:39;;;;;;;45.08;22.10;;;19.10;80.90;;;;;;5093291;28;20111;-59
2022/03/24 11:57:32;;;;;;;27.52;15.15;;;18.90;80.50;;;;;;5093150;28;20039;-56
2022/03/24 12:00:13;;;;;;;39.88;16.80;;;18.80;76.00;;;;;;5092793;28;20032;-59
2022/03/24 12:02:48;;;;;;;38.53;18.42;;;18.60;77.50;;;;;;5073044;28;20024;-58
2022/03/24 12:05:14;;;;;;;40.67;17.48;;;18.70;77.50;;;;;;5088111;28;20028;-59
2022/03/24 12:07:40;;;;;;;41.90;12.10;;;18.80;76.40;;;;;;5085964;28;20074;-58
2022/03/24 12:10:08;;;;;;;41.65;19.35;;;18.90;73.50;;;;;;5084076;28;20060;-58
2022/03/24 12:12:35;;;;;;;51.75;20.55;;;19.10;75.90;;;;;;5088127;28;20043;-57
2022/03/24 12:15:17;;;;;;;37.85;17.92;;;19.20;75.00;;;;;;5092564;28;20035;-59
2022/03/24 12:18:03;;;;;;;51.80;19.95;;;19.30;76.00;;;;;;5092025;28;20120;-57
2022/03/24 12:20:42;;;;;;;47.90;21.20;;;19.60;74.70;;;;;;5077653;28;20035;-57
2022/03/24 12:23:08;;;;;;;46.75;24.05;;;19.70;74.90;;;;;;5092590;28;20379;-56
2022/03/24 12:25:35;;;;;;;52.15;25.25;;;19.70;74.20;;;;;;5096176;28;20020;-58
2022/03/24 12:28:05;;;;;;;43.10;22.67;;;19.20;75.30;;;;;;5093778;28;20023;-54
2022/03/24 12:30:49;;;;;;;54.75;22.42;;;19.10;74.70;;;;;;5094898;28;20115;-56
2022/03/24 12:33:18;;;;;;;49.28;20.23;;;19.30;74.00;;;;;;5076511;28;20032;-56
2022/03/24 12:35:52;;;;;;;39.47;21.48;;;19.50;74.30;;;;;;5084225;28;20031;-54
2022/03/24 12:38:30;;;;;;;49.55;24.48;;;19.60;73.70;;;;;;5091804;28;20024;-57
2022/03/24 12:41:05;;;;;;;50.42;23.08;;;19.70;73.10;;;;;;5086972;28;20520;-56